sensor_id;sensor_type;location;lat;lon;timestamp;temperature;humidity
39695;DHT22;25367;-35.352;149.036;2023-01-09T00:01:46;25.30;48.40
39695;DHT22;25367;-35.352;149.036;2023-01-09T00:04:16;25.20;48.30
39695;DHT22;25367;-35.352;149.036;2023-01-09T00:06:48;25.30;48.40
39695;DHT22;25367;-35.352;149.036;2023-01-09T00:09:17;25.30;48.30
39695;DHT22;25367;-35.352;149.036;2023-01-09T00:11:46;25.30;48.40
39695;DHT22;25367;-35.352;149.036;2023-01-09T00:14:16;25.30;48.40
39695;DHT22;25367;-35.352;149.036;2023-01-09T00:16:46;25.30;48.40
39695;DHT22;25367;-35.352;149.036;2023-01-09T00:19:15;25.30;48.40
39695;DHT22;25367;-35.352;149.036;2023-01-09T00:21:46;25.30;48.40
39695;DHT22;25367;-35.352;149.036;2023-01-09T00:24:16;25.30;48.40
39695;DHT22;25367;-35.352;149.036;2023-01-09T00:26:45;25.30;48.40
39695;DHT22;25367;-35.352;149.036;2023-01-09T00:29:15;25.30;48.40
39695;DHT22;25367;-35.352;149.036;2023-01-09T00:31:44;25.40;48.40
39695;DHT22;25367;-35.352;149.036;2023-01-09T00:34:13;25.40;48.40
39695;DHT22;25367;-35.352;149.036;2023-01-09T00:36:43;25.40;48.40
39695;DHT22;25367;-35.352;149.036;2023-01-09T00:39:14;25.40;48.50
39695;DHT22;25367;-35.352;149.036;2023-01-09T00:41:46;25.40;48.40
39695;DHT22;25367;-35.352;149.036;2023-01-09T00:44:19;25.40;48.40
39695;DHT22;25367;-35.352;149.036;2023-01-09T00:46:48;25.40;48.40
39695;DHT22;25367;-35.352;149.036;2023-01-09T00:49:18;25.40;48.20
39695;DHT22;25367;-35.352;149.036;2023-01-09T00:51:48;25.30;48.70
39695;DHT22;25367;-35.352;149.036;2023-01-09T00:54:20;25.40;48.60
39695;DHT22;25367;-35.352;149.036;2023-01-09T00:56:50;25.40;48.50
39695;DHT22;25367;-35.352;149.036;2023-01-09T00:59:19;25.40;48.50
39695;DHT22;25367;-35.352;149.036;2023-01-09T01:01:49;25.50;48.60
39695;DHT22;25367;-35.352;149.036;2023-01-09T01:04:18;25.40;48.50
39695;DHT22;25367;-35.352;149.036;2023-01-09T01:06:48;25.50;48.50
39695;DHT22;25367;-35.352;149.036;2023-01-09T01:09:19;25.50;48.50
39695;DHT22;25367;-35.352;149.036;2023-01-09T01:11:49;25.50;48.50
39695;DHT22;25367;-35.352;149.036;2023-01-09T01:14:18;25.60;48.60
39695;DHT22;25367;-35.352;149.036;2023-01-09T01:16:47;25.60;48.60
39695;DHT22;25367;-35.352;149.036;2023-01-09T01:19:17;25.60;48.60
39695;DHT22;25367;-35.352;149.036;2023-01-09T01:21:46;25.60;48.50
39695;DHT22;25367;-35.352;149.036;2023-01-09T01:24:18;25.60;48.60
39695;DHT22;25367;-35.352;149.036;2023-01-09T01:26:47;25.60;48.60
39695;DHT22;25367;-35.352;149.036;2023-01-09T01:29:17;25.60;48.50
39695;DHT22;25367;-35.352;149.036;2023-01-09T01:31:46;25.60;48.50
39695;DHT22;25367;-35.352;149.036;2023-01-09T01:34:15;25.60;48.50
39695;DHT22;25367;-35.352;149.036;2023-01-09T01:36:45;25.60;48.50
39695;DHT22;25367;-35.352;149.036;2023-01-09T01:39:14;25.60;48.50
39695;DHT22;25367;-35.352;149.036;2023-01-09T01:41:46;25.60;48.50
39695;DHT22;25367;-35.352;149.036;2023-01-09T01:47:21;25.70;48.40
39695;DHT22;25367;-35.352;149.036;2023-01-09T01:49:52;25.70;48.70
39695;DHT22;25367;-35.352;149.036;2023-01-09T01:52:22;25.70;48.60
39695;DHT22;25367;-35.352;149.036;2023-01-09T01:54:53;25.70;48.60
39695;DHT22;25367;-35.352;149.036;2023-01-09T01:57:25;25.70;48.60
39695;DHT22;25367;-35.352;149.036;2023-01-09T01:59:57;25.70;48.60
39695;DHT22;25367;-35.352;149.036;2023-01-09T02:02:27;25.70;48.60
39695;DHT22;25367;-35.352;149.036;2023-01-09T02:04:59;25.70;48.40
39695;DHT22;25367;-35.352;149.036;2023-01-09T02:07:30;25.70;48.90
39695;DHT22;25367;-35.352;149.036;2023-01-09T02:10:00;25.70;48.80
39695;DHT22;25367;-35.352;149.036;2023-01-09T02:12:31;25.80;48.80
39695;DHT22;25367;-35.352;149.036;2023-01-09T02:15:03;25.80;48.70
39695;DHT22;25367;-35.352;149.036;2023-01-09T02:17:52;25.80;48.70
39695;DHT22;25367;-35.352;149.036;2023-01-09T02:20:39;25.80;48.50
39695;DHT22;25367;-35.352;149.036;2023-01-09T02:26:56;25.90;48.40
39695;DHT22;25367;-35.352;149.036;2023-01-09T02:32:45;25.90;48.60
39695;DHT22;25367;-35.352;149.036;2023-01-09T02:35:27;25.90;48.80
39695;DHT22;25367;-35.352;149.036;2023-01-09T02:38:05;25.90;48.70
39695;DHT22;25367;-35.352;149.036;2023-01-09T02:40:40;25.90;48.80
39695;DHT22;25367;-35.352;149.036;2023-01-09T02:43:11;25.90;48.70
39695;DHT22;25367;-35.352;149.036;2023-01-09T02:45:41;25.90;48.70
39695;DHT22;25367;-35.352;149.036;2023-01-09T02:48:13;25.90;49.30
39695;DHT22;25367;-35.352;149.036;2023-01-09T02:50:46;26.00;48.70
39695;DHT22;25367;-35.352;149.036;2023-01-09T02:53:37;26.00;48.70
39695;DHT22;25367;-35.352;149.036;2023-01-09T02:56:19;26.00;48.50
39695;DHT22;25367;-35.352;149.036;2023-01-09T02:59:02;26.00;48.70
39695;DHT22;25367;-35.352;149.036;2023-01-09T03:01:38;25.90;48.60
39695;DHT22;25367;-35.352;149.036;2023-01-09T03:04:18;25.90;49.00
39695;DHT22;25367;-35.352;149.036;2023-01-09T03:06:54;26.00;48.90
39695;DHT22;25367;-35.352;149.036;2023-01-09T03:09:27;26.00;48.90
39695;DHT22;25367;-35.352;149.036;2023-01-09T03:12:03;26.00;48.90
39695;DHT22;25367;-35.352;149.036;2023-01-09T03:14:35;26.10;48.90
39695;DHT22;25367;-35.352;149.036;2023-01-09T03:17:10;26.10;48.90
39695;DHT22;25367;-35.352;149.036;2023-01-09T03:19:44;26.10;48.80
39695;DHT22;25367;-35.352;149.036;2023-01-09T03:22:14;26.20;48.90
39695;DHT22;25367;-35.352;149.036;2023-01-09T03:24:44;26.20;48.90
39695;DHT22;25367;-35.352;149.036;2023-01-09T03:27:14;26.20;48.90
39695;DHT22;25367;-35.352;149.036;2023-01-09T03:29:43;26.20;48.90
39695;DHT22;25367;-35.352;149.036;2023-01-09T03:32:13;26.20;48.90
39695;DHT22;25367;-35.352;149.036;2023-01-09T03:34:44;26.30;48.90
39695;DHT22;25367;-35.352;149.036;2023-01-09T03:37:13;26.30;48.90
39695;DHT22;25367;-35.352;149.036;2023-01-09T03:39:43;26.30;49.60
39695;DHT22;25367;-35.352;149.036;2023-01-09T03:42:12;26.30;48.90
39695;DHT22;25367;-35.352;149.036;2023-01-09T03:44:42;26.30;49.00
39695;DHT22;25367;-35.352;149.036;2023-01-09T03:47:11;26.30;49.00
39695;DHT22;25367;-35.352;149.036;2023-01-09T03:49:43;26.30;49.00
39695;DHT22;25367;-35.352;149.036;2023-01-09T03:52:12;26.40;49.10
39695;DHT22;25367;-35.352;149.036;2023-01-09T03:54:41;26.40;49.00
39695;DHT22;25367;-35.352;149.036;2023-01-09T03:57:11;26.40;49.10
39695;DHT22;25367;-35.352;149.036;2023-01-09T03:59:40;26.50;49.10
39695;DHT22;25367;-35.352;149.036;2023-01-09T04:02:10;26.50;49.10
39695;DHT22;25367;-35.352;149.036;2023-01-09T04:04:39;26.50;49.10
39695;DHT22;25367;-35.352;149.036;2023-01-09T04:07:11;26.50;49.10
39695;DHT22;25367;-35.352;149.036;2023-01-09T04:09:40;26.50;49.10
39695;DHT22;25367;-35.352;149.036;2023-01-09T04:12:10;26.50;49.20
39695;DHT22;25367;-35.352;149.036;2023-01-09T04:14:39;26.60;49.20
39695;DHT22;25367;-35.352;149.036;2023-01-09T04:17:08;26.60;49.20
39695;DHT22;25367;-35.352;149.036;2023-01-09T04:19:38;26.60;49.20
39695;DHT22;25367;-35.352;149.036;2023-01-09T04:22:09;26.60;49.10
39695;DHT22;25367;-35.352;149.036;2023-01-09T04:24:38;26.60;49.10
39695;DHT22;25367;-35.352;149.036;2023-01-09T04:27:08;26.60;49.10
39695;DHT22;25367;-35.352;149.036;2023-01-09T04:29:37;26.70;49.20
39695;DHT22;25367;-35.352;149.036;2023-01-09T04:32:07;26.70;49.20
39695;DHT22;25367;-35.352;149.036;2023-01-09T04:34:36;26.70;49.10
39695;DHT22;25367;-35.352;149.036;2023-01-09T04:37:06;26.70;49.10
39695;DHT22;25367;-35.352;149.036;2023-01-09T04:39:38;26.80;49.10
39695;DHT22;25367;-35.352;149.036;2023-01-09T04:42:08;26.80;49.10
39695;DHT22;25367;-35.352;149.036;2023-01-09T04:44:37;26.80;49.10
39695;DHT22;25367;-35.352;149.036;2023-01-09T04:47:07;26.80;49.10
39695;DHT22;25367;-35.352;149.036;2023-01-09T04:49:36;26.80;49.00
39695;DHT22;25367;-35.352;149.036;2023-01-09T04:52:06;26.80;49.00
39695;DHT22;25367;-35.352;149.036;2023-01-09T04:54:38;26.90;49.10
39695;DHT22;25367;-35.352;149.036;2023-01-09T04:57:08;26.90;49.00
39695;DHT22;25367;-35.352;149.036;2023-01-09T04:59:37;27.00;49.10
39695;DHT22;25367;-35.352;149.036;2023-01-09T05:02:06;27.00;49.10
39695;DHT22;25367;-35.352;149.036;2023-01-09T05:04:36;27.00;49.10
39695;DHT22;25367;-35.352;149.036;2023-01-09T05:07:05;27.00;49.10
39695;DHT22;25367;-35.352;149.036;2023-01-09T05:09:37;27.00;49.00
39695;DHT22;25367;-35.352;149.036;2023-01-09T05:12:07;27.00;49.10
39695;DHT22;25367;-35.352;149.036;2023-01-09T05:14:36;27.10;49.10
39695;DHT22;25367;-35.352;149.036;2023-01-09T05:17:06;27.10;49.10
39695;DHT22;25367;-35.352;149.036;2023-01-09T05:19:36;27.10;49.10
39695;DHT22;25367;-35.352;149.036;2023-01-09T05:22:05;27.10;49.10
39695;DHT22;25367;-35.352;149.036;2023-01-09T05:24:38;27.10;49.10
39695;DHT22;25367;-35.352;149.036;2023-01-09T05:27:07;27.20;49.10
39695;DHT22;25367;-35.352;149.036;2023-01-09T05:29:39;27.20;49.10
39695;DHT22;25367;-35.352;149.036;2023-01-09T05:32:08;27.20;49.10
39695;DHT22;25367;-35.352;149.036;2023-01-09T05:34:37;27.20;49.10
39695;DHT22;25367;-35.352;149.036;2023-01-09T05:37:07;27.30;49.80
39695;DHT22;25367;-35.352;149.036;2023-01-09T05:39:38;27.30;49.20
39695;DHT22;25367;-35.352;149.036;2023-01-09T05:42:08;27.30;49.20
39695;DHT22;25367;-35.352;149.036;2023-01-09T05:44:37;27.40;49.40
39695;DHT22;25367;-35.352;149.036;2023-01-09T05:47:06;27.40;49.90
39695;DHT22;25367;-35.352;149.036;2023-01-09T05:49:36;27.40;49.30
39695;DHT22;25367;-35.352;149.036;2023-01-09T05:52:05;27.40;49.30
39695;DHT22;25367;-35.352;149.036;2023-01-09T05:54:37;27.50;49.40
39695;DHT22;25367;-35.352;149.036;2023-01-09T05:57:07;27.50;49.40
39695;DHT22;25367;-35.352;149.036;2023-01-09T05:59:36;27.50;49.30
39695;DHT22;25367;-35.352;149.036;2023-01-09T06:02:05;27.50;49.30
39695;DHT22;25367;-35.352;149.036;2023-01-09T06:04:35;27.60;49.40
39695;DHT22;25367;-35.352;149.036;2023-01-09T06:07:04;27.60;49.40
39695;DHT22;25367;-35.352;149.036;2023-01-09T06:09:33;27.60;49.40
39695;DHT22;25367;-35.352;149.036;2023-01-09T06:12:05;27.60;49.40
39695;DHT22;25367;-35.352;149.036;2023-01-09T06:14:35;27.70;49.50
39695;DHT22;25367;-35.352;149.036;2023-01-09T06:17:04;27.70;49.50
39695;DHT22;25367;-35.352;149.036;2023-01-09T06:19:34;27.70;49.50
39695;DHT22;25367;-35.352;149.036;2023-01-09T06:22:03;27.80;49.60
39695;DHT22;25367;-35.352;149.036;2023-01-09T06:24:32;27.80;49.60
39695;DHT22;25367;-35.352;149.036;2023-01-09T06:27:04;27.90;49.70
39695;DHT22;25367;-35.352;149.036;2023-01-09T06:29:34;27.90;49.70
39695;DHT22;25367;-35.352;149.036;2023-01-09T06:32:03;27.90;49.70
39695;DHT22;25367;-35.352;149.036;2023-01-09T06:34:33;28.00;49.80
39695;DHT22;25367;-35.352;149.036;2023-01-09T06:37:02;28.00;49.80
39695;DHT22;25367;-35.352;149.036;2023-01-09T06:39:31;28.00;49.80
39695;DHT22;25367;-35.352;149.036;2023-01-09T06:42:01;28.10;49.80
39695;DHT22;25367;-35.352;149.036;2023-01-09T06:44:32;28.10;49.80
39695;DHT22;25367;-35.352;149.036;2023-01-09T06:47:02;28.10;49.70
39695;DHT22;25367;-35.352;149.036;2023-01-09T06:49:31;28.20;49.80
39695;DHT22;25367;-35.352;149.036;2023-01-09T06:52:00;28.20;49.70
39695;DHT22;25367;-35.352;149.036;2023-01-09T06:54:30;28.30;49.70
39695;DHT22;25367;-35.352;149.036;2023-01-09T06:57:00;28.30;49.60
39695;DHT22;25367;-35.352;149.036;2023-01-09T06:59:32;28.30;49.70
39695;DHT22;25367;-35.352;149.036;2023-01-09T07:02:02;28.40;49.80
39695;DHT22;25367;-35.352;149.036;2023-01-09T07:04:31;28.40;49.80
39695;DHT22;25367;-35.352;149.036;2023-01-09T07:07:00;28.40;49.70
39695;DHT22;25367;-35.352;149.036;2023-01-09T07:09:30;28.50;49.70
39695;DHT22;25367;-35.352;149.036;2023-01-09T07:11:59;28.50;49.70
39695;DHT22;25367;-35.352;149.036;2023-01-09T07:14:31;28.60;49.70
39695;DHT22;25367;-35.352;149.036;2023-01-09T07:17:00;28.60;49.60
39695;DHT22;25367;-35.352;149.036;2023-01-09T07:19:30;28.70;49.60
39695;DHT22;25367;-35.352;149.036;2023-01-09T07:21:59;28.70;49.60
39695;DHT22;25367;-35.352;149.036;2023-01-09T07:24:28;28.80;49.60
39695;DHT22;25367;-35.352;149.036;2023-01-09T07:26:58;28.80;49.60
39695;DHT22;25367;-35.352;149.036;2023-01-09T07:29:27;28.80;49.60
39695;DHT22;25367;-35.352;149.036;2023-01-09T07:32:00;28.90;49.70
39695;DHT22;25367;-35.352;149.036;2023-01-09T07:34:29;28.90;49.60
39695;DHT22;25367;-35.352;149.036;2023-01-09T07:36:59;28.90;49.60
39695;DHT22;25367;-35.352;149.036;2023-01-09T07:39:28;29.00;49.70
39695;DHT22;25367;-35.352;149.036;2023-01-09T07:41:57;29.00;49.60
39695;DHT22;25367;-35.352;149.036;2023-01-09T07:44:28;29.10;49.60
39695;DHT22;25367;-35.352;149.036;2023-01-09T07:47:00;29.10;49.50
39695;DHT22;25367;-35.352;149.036;2023-01-09T07:49:30;29.20;49.30
39695;DHT22;25367;-35.352;149.036;2023-01-09T07:51:59;29.20;48.60
39695;DHT22;25367;-35.352;149.036;2023-01-09T07:54:29;29.20;48.60
39695;DHT22;25367;-35.352;149.036;2023-01-09T07:57:01;29.30;48.10
39695;DHT22;25367;-35.352;149.036;2023-01-09T07:59:33;29.30;48.10
39695;DHT22;25367;-35.352;149.036;2023-01-09T08:02:11;29.30;47.50
39695;DHT22;25367;-35.352;149.036;2023-01-09T08:04:43;29.40;47.70
39695;DHT22;25367;-35.352;149.036;2023-01-09T08:07:14;29.40;47.20
39695;DHT22;25367;-35.352;149.036;2023-01-09T08:09:49;29.40;46.70
39695;DHT22;25367;-35.352;149.036;2023-01-09T18:19:37;24.00;47.70
39695;DHT22;25367;-35.352;149.036;2023-01-09T18:22:07;23.90;48.40
39695;DHT22;25367;-35.352;149.036;2023-01-09T18:24:36;24.10;48.80
39695;DHT22;25367;-35.352;149.036;2023-01-09T18:27:05;24.30;47.80
39695;DHT22;25367;-35.352;149.036;2023-01-09T18:29:35;24.50;48.10
39695;DHT22;25367;-35.352;149.036;2023-01-09T18:32:04;24.80;47.30
39695;DHT22;25367;-35.352;149.036;2023-01-09T18:34:36;24.90;46.80
39695;DHT22;25367;-35.352;149.036;2023-01-09T18:37:06;25.10;46.60
39695;DHT22;25367;-35.352;149.036;2023-01-09T18:39:35;25.20;46.40
39695;DHT22;25367;-35.352;149.036;2023-01-09T18:42:04;25.30;46.10
39695;DHT22;25367;-35.352;149.036;2023-01-09T18:44:34;25.40;45.70
39695;DHT22;25367;-35.352;149.036;2023-01-09T18:47:03;25.60;45.70
39695;DHT22;25367;-35.352;149.036;2023-01-09T18:49:35;25.70;45.30
39695;DHT22;25367;-35.352;149.036;2023-01-09T18:52:04;25.80;45.00
39695;DHT22;25367;-35.352;149.036;2023-01-09T18:54:33;25.80;44.80
39695;DHT22;25367;-35.352;149.036;2023-01-09T18:57:03;25.90;44.60
39695;DHT22;25367;-35.352;149.036;2023-01-09T18:59:33;26.00;44.30
39695;DHT22;25367;-35.352;149.036;2023-01-09T19:02:02;26.10;44.10
39695;DHT22;25367;-35.352;149.036;2023-01-09T19:04:32;26.10;43.80
39695;DHT22;25367;-35.352;149.036;2023-01-09T19:07:03;26.10;43.70
39695;DHT22;25367;-35.352;149.036;2023-01-09T19:09:33;26.10;43.60
39695;DHT22;25367;-35.352;149.036;2023-01-09T19:12:03;26.10;43.50
39695;DHT22;25367;-35.352;149.036;2023-01-09T19:14:32;26.10;43.30
39695;DHT22;25367;-35.352;149.036;2023-01-09T19:17:02;26.20;43.30
39695;DHT22;25367;-35.352;149.036;2023-01-09T19:19:32;26.20;43.20
39695;DHT22;25367;-35.352;149.036;2023-01-09T19:22:04;26.20;43.20
39695;DHT22;25367;-35.352;149.036;2023-01-09T19:24:33;26.20;43.30
39695;DHT22;25367;-35.352;149.036;2023-01-09T19:27:03;26.10;43.30
39695;DHT22;25367;-35.352;149.036;2023-01-09T19:29:32;26.10;43.30
39695;DHT22;25367;-35.352;149.036;2023-01-09T19:32:01;26.10;43.20
39695;DHT22;25367;-35.352;149.036;2023-01-09T19:34:31;26.10;43.20
39695;DHT22;25367;-35.352;149.036;2023-01-09T19:37:02;26.10;43.10
39695;DHT22;25367;-35.352;149.036;2023-01-09T19:39:31;26.10;43.10
39695;DHT22;25367;-35.352;149.036;2023-01-09T19:42:01;26.00;43.00
39695;DHT22;25367;-35.352;149.036;2023-01-09T19:44:30;26.00;43.10
39695;DHT22;25367;-35.352;149.036;2023-01-09T19:46:59;25.90;43.00
39695;DHT22;25367;-35.352;149.036;2023-01-09T19:49:29;25.90;43.10
39695;DHT22;25367;-35.352;149.036;2023-01-09T19:51:58;25.90;43.10
39695;DHT22;25367;-35.352;149.036;2023-01-09T19:54:30;25.80;43.20
39695;DHT22;25367;-35.352;149.036;2023-01-09T19:57:00;25.80;43.20
39695;DHT22;25367;-35.352;149.036;2023-01-09T19:59:29;25.70;43.30
39695;DHT22;25367;-35.352;149.036;2023-01-09T20:01:58;25.70;43.40
39695;DHT22;25367;-35.352;149.036;2023-01-09T20:04:28;25.60;43.40
39695;DHT22;25367;-35.352;149.036;2023-01-09T20:06:57;25.60;43.50
39695;DHT22;25367;-35.352;149.036;2023-01-09T20:09:28;25.50;43.60
39695;DHT22;25367;-35.352;149.036;2023-01-09T20:11:58;25.40;43.60
39695;DHT22;25367;-35.352;149.036;2023-01-09T20:14:27;25.40;43.90
39695;DHT22;25367;-35.352;149.036;2023-01-09T20:16:57;25.40;43.90
39695;DHT22;25367;-35.352;149.036;2023-01-09T20:19:26;25.30;44.00
39695;DHT22;25367;-35.352;149.036;2023-01-09T20:21:56;25.30;44.20
39695;DHT22;25367;-35.352;149.036;2023-01-09T20:24:26;25.30;44.30
39695;DHT22;25367;-35.352;149.036;2023-01-09T20:26:57;25.20;44.20
39695;DHT22;25367;-35.352;149.036;2023-01-09T20:29:26;25.20;44.30
39695;DHT22;25367;-35.352;149.036;2023-01-09T20:31:56;25.10;44.30
39695;DHT22;25367;-35.352;149.036;2023-01-09T20:34:25;25.10;44.40
39695;DHT22;25367;-35.352;149.036;2023-01-09T20:36:54;25.00;44.50
39695;DHT22;25367;-35.352;149.036;2023-01-09T20:39:24;25.00;44.70
39695;DHT22;25367;-35.352;149.036;2023-01-09T20:41:53;25.00;44.80
39695;DHT22;25367;-35.352;149.036;2023-01-09T20:44:25;25.00;44.80
39695;DHT22;25367;-35.352;149.036;2023-01-09T20:46:54;24.90;44.70
39695;DHT22;25367;-35.352;149.036;2023-01-09T20:49:24;24.90;44.90
39695;DHT22;25367;-35.352;149.036;2023-01-09T20:51:53;24.90;45.00
39695;DHT22;25367;-35.352;149.036;2023-01-09T20:54:22;24.90;45.10
39695;DHT22;25367;-35.352;149.036;2023-01-09T20:56:52;24.80;45.10
39695;DHT22;25367;-35.352;149.036;2023-01-09T20:59:24;24.80;45.20
39695;DHT22;25367;-35.352;149.036;2023-01-09T21:01:54;24.80;45.30
39695;DHT22;25367;-35.352;149.036;2023-01-09T21:04:24;24.80;45.30
39695;DHT22;25367;-35.352;149.036;2023-01-09T21:06:53;24.80;45.40
39695;DHT22;25367;-35.352;149.036;2023-01-09T21:09:23;24.70;45.50
39695;DHT22;25367;-35.352;149.036;2023-01-09T21:11:52;24.70;46.10
39695;DHT22;25367;-35.352;149.036;2023-01-09T21:14:23;24.70;45.60
39695;DHT22;25367;-35.352;149.036;2023-01-09T21:16:53;24.70;45.70
39695;DHT22;25367;-35.352;149.036;2023-01-09T21:19:22;24.70;45.70
39695;DHT22;25367;-35.352;149.036;2023-01-09T21:21:52;24.70;45.70
39695;DHT22;25367;-35.352;149.036;2023-01-09T21:24:21;24.70;45.80
39695;DHT22;25367;-35.352;149.036;2023-01-09T21:26:50;24.70;45.80
39695;DHT22;25367;-35.352;149.036;2023-01-09T21:29:20;24.70;45.90
39695;DHT22;25367;-35.352;149.036;2023-01-09T21:31:53;24.70;45.90
39695;DHT22;25367;-35.352;149.036;2023-01-09T21:34:22;24.70;45.90
39695;DHT22;25367;-35.352;149.036;2023-01-09T21:36:52;24.70;46.00
39695;DHT22;25367;-35.352;149.036;2023-01-09T21:39:21;24.70;46.00
39695;DHT22;25367;-35.352;149.036;2023-01-09T21:41:51;24.70;46.70
39695;DHT22;25367;-35.352;149.036;2023-01-09T21:44:21;24.70;46.10
39695;DHT22;25367;-35.352;149.036;2023-01-09T21:46:53;24.70;46.20
39695;DHT22;25367;-35.352;149.036;2023-01-09T21:49:23;24.70;46.10
39695;DHT22;25367;-35.352;149.036;2023-01-09T21:51:53;24.70;46.20
39695;DHT22;25367;-35.352;149.036;2023-01-09T21:54:23;24.70;46.20
39695;DHT22;25367;-35.352;149.036;2023-01-09T21:56:53;24.70;46.20
39695;DHT22;25367;-35.352;149.036;2023-01-09T21:59:22;24.70;46.20
39695;DHT22;25367;-35.352;149.036;2023-01-09T22:01:55;24.70;46.30
39695;DHT22;25367;-35.352;149.036;2023-01-09T22:04:27;24.70;46.30
39695;DHT22;25367;-35.352;149.036;2023-01-09T22:06:57;24.70;46.40
39695;DHT22;25367;-35.352;149.036;2023-01-09T22:09:26;24.70;46.40
39695;DHT22;25367;-35.352;149.036;2023-01-09T22:11:56;24.70;46.40
39695;DHT22;25367;-35.352;149.036;2023-01-09T22:14:25;24.70;46.40
39695;DHT22;25367;-35.352;149.036;2023-01-09T22:16:57;24.70;46.40
39695;DHT22;25367;-35.352;149.036;2023-01-09T22:19:27;24.70;46.40
39695;DHT22;25367;-35.352;149.036;2023-01-09T22:21:56;24.80;46.50
39695;DHT22;25367;-35.352;149.036;2023-01-09T22:24:26;24.70;46.50
39695;DHT22;25367;-35.352;149.036;2023-01-09T22:26:56;24.70;46.50
39695;DHT22;25367;-35.352;149.036;2023-01-09T22:29:25;24.80;46.60
39695;DHT22;25367;-35.352;149.036;2023-01-09T22:31:56;24.70;46.60
39695;DHT22;25367;-35.352;149.036;2023-01-09T22:34:26;24.80;46.60
39695;DHT22;25367;-35.352;149.036;2023-01-09T22:36:55;24.80;46.70
39695;DHT22;25367;-35.352;149.036;2023-01-09T22:39:24;24.80;46.60
39695;DHT22;25367;-35.352;149.036;2023-01-09T22:41:54;24.80;46.70
39695;DHT22;25367;-35.352;149.036;2023-01-09T22:44:23;24.80;46.70
39695;DHT22;25367;-35.352;149.036;2023-01-09T22:46:55;24.80;46.70
39695;DHT22;25367;-35.352;149.036;2023-01-09T22:49:24;24.80;46.70
39695;DHT22;25367;-35.352;149.036;2023-01-09T22:51:54;24.80;46.70
39695;DHT22;25367;-35.352;149.036;2023-01-09T22:54:23;24.80;46.70
39695;DHT22;25367;-35.352;149.036;2023-01-09T22:56:53;24.90;46.80
39695;DHT22;25367;-35.352;149.036;2023-01-09T22:59:23;24.90;46.80
39695;DHT22;25367;-35.352;149.036;2023-01-09T23:01:55;24.90;46.80
39695;DHT22;25367;-35.352;149.036;2023-01-09T23:04:24;24.90;46.80
39695;DHT22;25367;-35.352;149.036;2023-01-09T23:06:54;24.90;46.80
39695;DHT22;25367;-35.352;149.036;2023-01-09T23:09:24;24.90;46.80
39695;DHT22;25367;-35.352;149.036;2023-01-09T23:11:53;24.90;46.80
39695;DHT22;25367;-35.352;149.036;2023-01-09T23:14:23;24.90;46.80
39695;DHT22;25367;-35.352;149.036;2023-01-09T23:16:52;25.00;46.90
39695;DHT22;25367;-35.352;149.036;2023-01-09T23:19:23;25.00;46.90
39695;DHT22;25367;-35.352;149.036;2023-01-09T23:21:53;25.00;46.80
39695;DHT22;25367;-35.352;149.036;2023-01-09T23:24:22;25.00;46.90
39695;DHT22;25367;-35.352;149.036;2023-01-09T23:26:52;25.00;46.90
39695;DHT22;25367;-35.352;149.036;2023-01-09T23:29:22;25.00;46.90
39695;DHT22;25367;-35.352;149.036;2023-01-09T23:31:51;25.00;46.90
39695;DHT22;25367;-35.352;149.036;2023-01-09T23:34:23;25.00;46.90
39695;DHT22;25367;-35.352;149.036;2023-01-09T23:36:54;25.10;46.90
39695;DHT22;25367;-35.352;149.036;2023-01-09T23:39:23;25.10;46.90
39695;DHT22;25367;-35.352;149.036;2023-01-09T23:41:53;25.10;46.90
39695;DHT22;25367;-35.352;149.036;2023-01-09T23:44:22;25.10;46.90
39695;DHT22;25367;-35.352;149.036;2023-01-09T23:46:51;25.10;46.90
39695;DHT22;25367;-35.352;149.036;2023-01-09T23:49:21;25.10;46.90
39695;DHT22;25367;-35.352;149.036;2023-01-09T23:51:52;25.10;46.90
39695;DHT22;25367;-35.352;149.036;2023-01-09T23:54:22;25.10;46.90
39695;DHT22;25367;-35.352;149.036;2023-01-09T23:56:51;25.10;46.90
39695;DHT22;25367;-35.352;149.036;2023-01-09T23:59:20;25.20;46.90
